createdAt,value
2019-05-17T00:02:57.175Z,29.00
2019-05-17T00:05:58.292Z,33.67
2019-05-17T00:09:00.523Z,29.87
2019-05-17T00:12:02.849Z,32.33
2019-05-17T00:15:07.169Z,31.60
2019-05-17T00:18:07.526Z,36.30
2019-05-17T00:21:09.803Z,30.60
2019-05-17T00:24:12.046Z,31.13
2019-05-17T00:27:14.317Z,36.97
2019-05-17T00:30:17.671Z,33.67
2019-05-17T00:33:18.907Z,34.57
2019-05-17T00:36:21.170Z,35.70
2019-05-17T00:39:23.411Z,35.87
2019-05-17T00:42:26.456Z,35.70
2019-05-17T00:45:28.009Z,33.67
2019-05-17T00:48:30.239Z,35.83
2019-05-17T00:51:32.484Z,32.87
2019-05-17T00:54:36.179Z,34.80
2019-05-17T00:57:37.147Z,36.27
2019-05-17T01:00:39.394Z,34.47
2019-05-17T01:03:41.684Z,35.70
2019-05-17T01:06:43.956Z,37.47
2019-05-17T01:09:47.235Z,36.20
2019-05-17T01:12:48.507Z,32.67
2019-05-17T01:15:50.768Z,35.80
2019-05-17T01:18:52.991Z,35.03
2019-05-17T01:21:56.801Z,37.37
2019-05-17T01:24:57.524Z,35.53
2019-05-17T01:27:59.735Z,36.90
2019-05-17T01:31:01.955Z,35.70
2019-05-17T01:34:04.161Z,32.53
2019-05-17T01:37:06.624Z,33.77
2019-05-17T01:40:08.699Z,36.27
2019-05-17T01:43:10.903Z,34.63
2019-05-17T01:46:13.157Z,34.10
2019-05-17T01:49:16.437Z,34.73
2019-05-17T01:52:17.717Z,30.57
2019-05-17T01:55:19.951Z,32.40
2019-05-17T01:58:22.167Z,34.63
2019-05-17T02:01:24.402Z,38.20
2019-05-17T02:04:26.877Z,36.73
2019-05-17T02:07:29.014Z,36.60
2019-05-17T02:10:31.243Z,35.60
2019-05-17T02:13:33.476Z,36.57
2019-05-17T02:16:37.696Z,36.17
2019-05-17T02:19:38.082Z,34.53
2019-05-17T02:22:40.334Z,34.50
2019-05-17T02:25:42.555Z,37.53
2019-05-17T02:28:44.788Z,37.90
2019-05-17T02:31:47.062Z,35.83
2019-05-17T02:34:49.321Z,38.20
2019-05-17T02:37:53.480Z,37.63
2019-05-17T02:40:54.043Z,37.90
2019-05-17T02:43:56.236Z,40.40
2019-05-17T02:46:58.493Z,39.07
2019-05-17T02:50:00.718Z,34.00
2019-05-17T02:53:04.508Z,37.30
2019-05-17T02:56:05.268Z,39.83
2019-05-17T02:59:07.605Z,39.27
2019-05-17T03:02:12.353Z,42.60
2019-05-17T03:05:12.842Z,42.77
2019-05-17T03:08:14.508Z,40.57
2019-05-17T03:11:16.751Z,37.97
2019-05-17T03:14:19.020Z,41.97
2019-05-17T03:17:22.919Z,38.30
2019-05-17T03:20:23.533Z,39.80
2019-05-17T03:23:25.842Z,42.67
2019-05-17T03:26:28.094Z,41.13
2019-05-17T03:29:33.234Z,43.10
2019-05-17T03:32:36.305Z,39.47
2019-05-17T03:35:37.950Z,38.40
2019-05-17T03:38:37.113Z,42.87
2019-05-17T03:41:42.651Z,40.07
2019-05-17T03:44:43.832Z,47.83
2019-05-17T03:47:44.846Z,44.83
2019-05-17T03:50:46.224Z,36.03
2019-05-17T03:53:48.424Z,44.27
2019-05-17T03:56:53.343Z,42.20
2019-05-17T03:59:53.081Z,41.63
2019-05-17T04:02:55.336Z,41.27
2019-05-17T04:05:57.588Z,39.80
2019-05-17T04:09:03.314Z,43.00
2019-05-17T04:12:02.800Z,43.43
2019-05-17T04:15:04.509Z,42.73
2019-05-17T04:18:06.796Z,40.83
2019-05-17T04:21:09.034Z,44.07
2019-05-17T04:24:12.680Z,47.13
2019-05-17T04:27:13.803Z,43.97
2019-05-17T04:30:16.490Z,45.13
2019-05-17T04:33:18.720Z,41.73
2019-05-17T04:36:22.456Z,39.73
2019-05-17T04:39:23.160Z,39.87
2019-05-17T04:45:33.440Z,43.23
2019-05-17T04:48:33.216Z,39.43
2019-05-17T04:51:35.451Z,42.53
2019-05-17T04:54:37.735Z,42.73
2019-05-17T04:57:43.314Z,47.27
2019-05-17T05:00:43.161Z,40.87
2019-05-17T05:03:44.838Z,42.43
2019-05-17T05:06:47.104Z,38.20
2019-05-17T05:09:52.178Z,39.57
2019-05-17T05:12:52.418Z,37.87
2019-05-17T05:15:54.086Z,33.37
2019-05-17T05:18:56.287Z,37.23
2019-05-17T05:21:58.544Z,34.43
2019-05-17T05:25:02.197Z,37.13
2019-05-17T05:28:03.098Z,36.77
2019-05-17T05:31:05.356Z,34.10
2019-05-17T05:34:07.559Z,31.00
2019-05-17T05:37:09.839Z,35.70
2019-05-17T05:40:12.899Z,30.40
2019-05-17T05:43:14.653Z,33.33
2019-05-17T05:46:16.904Z,30.80
2019-05-17T05:49:21.569Z,29.50
2019-05-17T05:52:21.959Z,32.90
2019-05-17T05:55:23.805Z,30.47
2019-05-17T05:58:26.089Z,28.80
2019-05-17T06:01:28.344Z,30.60
2019-05-17T06:04:31.853Z,29.30
2019-05-17T06:07:32.860Z,28.00
2019-05-17T06:10:35.165Z,28.87
2019-05-17T06:13:37.431Z,27.10
2019-05-17T06:16:42.295Z,27.83
2019-05-17T06:19:42.300Z,26.57
2019-05-17T06:22:44.325Z,27.67
2019-05-17T06:25:46.537Z,28.73
2019-05-17T06:28:48.770Z,25.63
2019-05-17T06:31:51.866Z,26.73
2019-05-17T06:34:53.239Z,27.97
2019-05-17T06:37:55.905Z,25.10
2019-05-17T06:40:58.150Z,26.03
2019-05-17T06:44:02.742Z,25.70
2019-05-17T06:47:02.931Z,23.87
2019-05-17T06:50:05.094Z,29.33
2019-05-17T06:53:07.339Z,28.83
2019-05-17T06:56:09.532Z,25.87
2019-05-17T06:59:11.806Z,24.23
2019-05-17T07:02:14.071Z,25.50
2019-05-17T07:05:20.088Z,25.00
2019-05-17T07:08:21.279Z,19.13
2019-05-17T07:11:23.501Z,21.67
2019-05-17T07:14:25.723Z,20.90
2019-05-17T07:17:30.257Z,19.90
2019-05-17T07:20:30.236Z,21.77
2019-05-17T07:23:32.466Z,19.83
2019-05-17T07:26:34.704Z,22.47
2019-05-17T07:29:36.938Z,18.20
2019-05-17T07:32:40.606Z,16.73
2019-05-17T07:35:41.387Z,18.80
2019-05-17T07:38:43.659Z,15.23
2019-05-17T07:41:45.933Z,18.33
2019-05-17T07:44:49.685Z,16.87
2019-05-17T07:47:50.655Z,18.20
2019-05-17T07:50:52.875Z,16.40
2019-05-17T07:53:55.072Z,15.13
2019-05-17T07:57:00.100Z,16.53
2019-05-17T08:00:00.097Z,14.10
2019-05-17T08:03:02.019Z,12.97
2019-05-17T08:06:04.307Z,16.13
2019-05-17T08:09:06.609Z,12.40
2019-05-17T08:12:10.998Z,14.63
2019-05-17T08:15:11.340Z,13.63
2019-05-17T08:18:13.633Z,14.60
2019-05-17T08:21:15.873Z,13.00
2019-05-17T08:24:19.632Z,13.07
2019-05-17T08:27:20.456Z,14.60
2019-05-17T08:30:22.792Z,15.97
2019-05-17T08:33:25.060Z,12.37
2019-05-17T08:36:29.653Z,14.13
2019-05-17T08:39:30.209Z,13.17
2019-05-17T08:42:32.099Z,13.53
2019-05-17T08:45:34.383Z,12.83
2019-05-17T08:48:36.659Z,13.77
2019-05-17T08:51:39.656Z,12.83
2019-05-17T08:54:42.902Z,13.63
2019-05-17T08:57:43.444Z,13.97
2019-05-17T09:00:45.765Z,13.87
2019-05-17T09:03:50.442Z,13.60
2019-05-17T09:06:50.605Z,15.50
2019-05-17T09:09:52.616Z,14.27
2019-05-17T09:12:54.891Z,15.50
2019-05-17T09:15:57.119Z,15.27
2019-05-17T09:19:00.561Z,13.70
2019-05-17T09:22:01.572Z,12.93
2019-05-17T09:25:04.257Z,15.70
2019-05-17T09:28:06.567Z,13.57
2019-05-17T09:31:10.390Z,15.80
2019-05-17T09:34:11.191Z,14.87
2019-05-17T09:37:16.801Z,16.07
2019-05-17T09:40:15.794Z,14.33
2019-05-17T09:43:20.552Z,12.87
2019-05-17T09:46:21.535Z,14.27
2019-05-17T09:49:23.858Z,12.67
2019-05-17T09:52:26.129Z,11.90
2019-05-17T09:55:30.137Z,14.63
2019-05-17T09:58:30.711Z,12.13
2019-05-17T10:01:32.960Z,11.53
2019-05-17T10:04:35.211Z,11.37
2019-05-17T10:07:39.966Z,10.87
2019-05-17T10:10:40.263Z,10.57
2019-05-17T10:13:41.954Z,11.47
2019-05-17T10:16:44.207Z,9.17
2019-05-17T10:19:46.506Z,8.53
2019-05-17T10:22:50.353Z,8.33
2019-05-17T10:25:51.067Z,10.37
2019-05-17T10:28:53.357Z,8.73
2019-05-17T10:31:55.580Z,9.63
2019-05-17T10:35:00.121Z,9.10
2019-05-17T10:38:00.189Z,8.97
2019-05-17T10:41:02.482Z,10.27
2019-05-17T10:44:04.806Z,10.07
2019-05-17T10:47:07.084Z,9.17
2019-05-17T10:50:10.967Z,9.70
2019-05-17T10:53:11.621Z,9.13
2019-05-17T10:56:13.915Z,10.00
2019-05-17T10:59:16.164Z,7.20
2019-05-17T11:02:19.667Z,9.67
2019-05-17T11:05:20.851Z,7.87
2019-05-17T11:08:23.119Z,6.80
2019-05-17T11:11:25.361Z,8.10
2019-05-17T11:14:27.575Z,8.20
2019-05-17T11:17:29.837Z,6.87
2019-05-17T11:20:32.083Z,9.17
2019-05-17T11:23:34.390Z,8.03
2019-05-17T11:26:36.783Z,7.10
2019-05-17T11:29:39.031Z,5.40
2019-05-17T11:32:41.369Z,6.70
2019-05-17T11:35:43.668Z,7.60
2019-05-17T11:38:45.912Z,8.60
2019-05-17T11:41:48.158Z,7.73
2019-05-17T11:44:50.444Z,7.17
2019-05-17T11:47:52.631Z,6.93
2019-05-17T11:50:55.306Z,6.93
2019-05-17T11:53:57.616Z,6.67
2019-05-17T11:56:59.831Z,10.70
2019-05-17T12:00:02.120Z,7.47
2019-05-17T12:03:04.427Z,8.10
2019-05-17T12:06:06.699Z,8.63
2019-05-17T12:09:08.951Z,8.23
2019-05-17T12:12:11.187Z,10.30
2019-05-17T12:15:13.504Z,6.17
2019-05-17T12:18:15.756Z,6.23
2019-05-17T12:21:18.277Z,7.33
2019-05-17T12:24:20.508Z,6.53
2019-05-17T12:27:22.724Z,6.67
2019-05-17T12:30:24.980Z,7.77
2019-05-17T12:33:27.294Z,12.47
2019-05-17T12:36:29.532Z,8.70
2019-05-17T12:39:31.838Z,6.90
2019-05-17T12:42:34.103Z,6.13
2019-05-17T12:45:36.349Z,7.53
2019-05-17T12:48:38.665Z,7.00
2019-05-17T12:51:40.943Z,7.07
2019-05-17T12:54:43.163Z,6.60
2019-05-17T12:57:45.394Z,6.77
2019-05-17T13:00:47.650Z,5.33
2019-05-17T13:03:49.940Z,7.90
2019-05-17T13:06:52.205Z,6.67
2019-05-17T13:09:54.492Z,5.37
2019-05-17T13:12:56.711Z,5.93
2019-05-17T13:15:58.984Z,6.97
2019-05-17T13:19:01.279Z,7.07
2019-05-17T13:22:03.608Z,5.10
2019-05-17T13:25:05.975Z,7.23
2019-05-17T13:28:08.204Z,5.93
2019-05-17T13:31:10.482Z,5.83
2019-05-17T13:34:12.755Z,5.23
2019-05-17T13:37:15.054Z,4.37
2019-05-17T13:40:17.381Z,4.77
2019-05-17T13:43:19.771Z,6.53
2019-05-17T13:46:32.712Z,4.33
2019-05-17T13:49:24.359Z,6.50
2019-05-17T13:52:26.648Z,3.90
2019-05-17T13:55:29.057Z,4.23
2019-05-17T13:58:31.302Z,4.57
2019-05-17T14:01:33.549Z,4.20
2019-05-17T14:04:35.792Z,3.77
2019-05-17T14:07:38.015Z,6.53
2019-05-17T14:10:40.255Z,3.57
2019-05-17T14:13:42.484Z,4.03
2019-05-17T14:16:44.774Z,4.00
2019-05-17T14:19:47.043Z,4.23
2019-05-17T14:22:49.263Z,3.33
2019-05-17T14:25:51.515Z,5.30
2019-05-17T14:28:53.733Z,3.93
2019-05-17T14:31:55.972Z,6.20
2019-05-17T14:34:58.267Z,3.53
2019-05-17T14:38:00.509Z,2.83
2019-05-17T14:41:08.099Z,3.60
2019-05-17T14:44:05.008Z,3.57
2019-05-17T14:47:07.310Z,4.80
2019-05-17T14:50:09.636Z,3.03
2019-05-17T14:53:11.891Z,3.43
2019-05-17T14:56:14.108Z,4.73
2019-05-17T14:59:16.341Z,3.23
2019-05-17T15:02:18.559Z,2.47
2019-05-17T15:05:20.783Z,3.30
2019-05-17T15:08:23.040Z,3.00
2019-05-17T15:11:25.372Z,5.23
2019-05-17T15:14:29.690Z,3.13
2019-05-17T15:17:34.118Z,3.03
2019-05-17T15:20:32.169Z,3.43
2019-05-17T15:23:34.450Z,3.50
2019-05-17T15:26:36.679Z,2.83
2019-05-17T15:29:38.946Z,3.57
2019-05-17T15:32:41.180Z,4.83
2019-05-17T15:35:43.659Z,4.27
2019-05-17T15:38:45.871Z,3.40
2019-05-17T15:41:48.128Z,3.40
2019-05-17T15:44:50.367Z,3.90
2019-05-17T15:47:52.627Z,2.90
2019-05-17T15:50:54.861Z,2.77
2019-05-17T15:53:57.122Z,4.40
2019-05-17T15:56:59.348Z,4.10
2019-05-17T16:00:01.727Z,2.80
2019-05-17T16:03:04.021Z,3.20
2019-05-17T16:06:06.326Z,2.83
2019-05-17T16:09:08.590Z,2.33
2019-05-17T16:12:10.917Z,2.20
2019-05-17T16:15:13.195Z,2.20
2019-05-17T16:18:15.473Z,2.30
2019-05-17T16:21:17.729Z,3.03
2019-05-17T16:24:20.078Z,2.07
2019-05-17T16:27:22.448Z,3.63
2019-05-17T16:30:24.818Z,2.67
2019-05-17T16:33:27.152Z,2.40
2019-05-17T16:36:29.484Z,3.80
2019-05-17T16:39:31.757Z,2.10
2019-05-17T16:42:34.022Z,2.30
2019-05-17T16:45:36.291Z,2.93
2019-05-17T16:48:38.558Z,3.30
2019-05-17T16:51:40.829Z,4.23
2019-05-17T16:54:43.060Z,4.30
2019-05-17T16:57:45.271Z,3.00
2019-05-17T17:00:47.540Z,4.30
2019-05-17T17:03:49.822Z,1.90
2019-05-17T17:06:52.329Z,3.50
2019-05-17T17:09:54.578Z,3.83
2019-05-17T17:12:56.808Z,2.30
2019-05-17T17:15:59.064Z,2.30
2019-05-17T17:19:01.338Z,2.10
2019-05-17T17:22:03.596Z,2.40
2019-05-17T17:25:05.928Z,3.97
2019-05-17T17:28:08.177Z,2.17
2019-05-17T17:31:11.197Z,1.70
2019-05-17T17:34:13.485Z,3.83
2019-05-17T17:37:15.779Z,2.40
2019-05-17T17:40:18.861Z,2.80
2019-05-17T17:43:21.131Z,2.63
2019-05-17T17:46:23.378Z,3.80
2019-05-17T17:49:25.599Z,4.37
2019-05-17T17:52:27.852Z,3.57
2019-05-17T17:55:30.119Z,2.60
2019-05-17T17:58:32.356Z,3.33
2019-05-17T18:01:34.665Z,2.87
2019-05-17T18:04:36.926Z,3.27
2019-05-17T18:07:39.287Z,2.83
2019-05-17T18:10:41.613Z,2.47
2019-05-17T18:13:43.888Z,3.67
2019-05-17T18:16:46.143Z,3.23
2019-05-17T18:19:48.399Z,4.97
2019-05-17T18:22:50.742Z,2.63
2019-05-17T18:25:53.027Z,2.67
2019-05-17T18:28:55.316Z,2.90
2019-05-17T18:31:57.638Z,3.00
2019-05-17T18:34:59.890Z,4.00
2019-05-17T18:38:02.168Z,3.70
2019-05-17T18:41:04.438Z,3.17
2019-05-17T18:44:06.708Z,2.80
2019-05-17T18:47:08.993Z,4.20
2019-05-17T18:50:11.501Z,4.07
2019-05-17T18:53:17.192Z,3.43
2019-05-17T18:56:16.141Z,5.53
2019-05-17T18:59:18.394Z,3.53
2019-05-17T19:02:20.652Z,4.47
2019-05-17T19:05:22.929Z,4.50
2019-05-17T19:08:25.159Z,3.40
2019-05-17T19:11:27.480Z,3.43
2019-05-17T19:14:42.108Z,3.67
2019-05-17T19:17:32.045Z,5.30
2019-05-17T19:20:34.312Z,6.60
2019-05-17T19:23:36.643Z,3.87
2019-05-17T19:26:38.935Z,2.97
2019-05-17T19:29:43.242Z,4.27
2019-05-17T19:32:43.634Z,3.53
2019-05-17T19:35:45.951Z,3.53
2019-05-17T19:38:48.206Z,2.67
2019-05-17T19:41:50.491Z,6.13
2019-05-17T19:44:59.035Z,5.47
2019-05-17T19:47:55.090Z,4.93
2019-05-17T19:50:57.543Z,2.73
2019-05-17T19:53:59.772Z,3.80
2019-05-17T19:57:02.109Z,4.03
2019-05-17T20:00:04.519Z,6.47
2019-05-17T20:03:06.908Z,5.57
2019-05-17T20:06:09.231Z,3.37
2019-05-17T20:09:11.585Z,4.60
2019-05-17T20:12:13.924Z,3.93
2019-05-17T20:15:18.137Z,6.30
2019-05-17T20:18:18.639Z,4.97
2019-05-17T20:21:20.996Z,5.00
2019-05-17T20:24:23.328Z,4.00
2019-05-17T20:27:25.710Z,4.17
2019-05-17T20:30:27.995Z,4.53
2019-05-17T20:33:30.365Z,3.87
2019-05-17T20:36:32.710Z,3.40
2019-05-17T20:39:35.018Z,7.37
2019-05-17T20:42:37.350Z,4.77
2019-05-17T20:45:39.659Z,3.80
2019-05-17T20:48:41.956Z,4.73
2019-05-17T20:51:44.273Z,4.20
2019-05-17T20:54:46.599Z,3.57
2019-05-17T20:57:48.925Z,4.33
2019-05-17T21:00:51.309Z,4.60
2019-05-17T21:03:53.616Z,3.50
2019-05-17T21:06:55.936Z,5.17
2019-05-17T21:09:58.294Z,7.23
2019-05-17T21:13:00.629Z,3.50
2019-05-17T21:16:03.047Z,4.83
2019-05-17T21:19:05.362Z,4.70
2019-05-17T21:22:07.738Z,4.80
2019-05-17T21:25:10.107Z,5.00
2019-05-17T21:28:12.464Z,5.00
2019-05-17T21:31:14.872Z,4.93
2019-05-17T21:34:17.137Z,5.53
2019-05-17T21:37:19.437Z,4.30
2019-05-17T21:40:21.768Z,6.03
2019-05-17T21:43:24.053Z,3.30
2019-05-17T21:46:26.355Z,6.00
2019-05-17T21:49:28.666Z,4.07
2019-05-17T21:52:31.014Z,5.17
2019-05-17T21:55:33.264Z,4.10
2019-05-17T21:58:35.563Z,5.30
2019-05-17T22:01:37.879Z,5.27
2019-05-17T22:04:40.275Z,3.77
2019-05-17T22:07:42.578Z,3.73
2019-05-17T22:10:44.895Z,4.07
2019-05-17T22:13:47.163Z,5.33
2019-05-17T22:16:49.565Z,4.17
2019-05-17T22:19:51.867Z,5.70
2019-05-17T22:22:54.138Z,5.57
2019-05-17T22:25:56.504Z,4.40
2019-05-17T22:28:58.874Z,6.47
2019-05-17T22:32:01.282Z,5.70
2019-05-17T22:35:04.153Z,7.57
2019-05-17T22:38:06.468Z,4.17
2019-05-17T22:41:08.756Z,4.83
2019-05-17T22:44:11.059Z,5.70
2019-05-17T22:47:13.327Z,6.27
2019-05-17T22:50:15.725Z,6.00
2019-05-17T22:53:18.024Z,5.00
2019-05-17T22:56:20.323Z,6.53
2019-05-17T22:59:22.628Z,4.50
2019-05-17T23:02:24.940Z,5.47
2019-05-17T23:05:27.343Z,4.07
2019-05-17T23:08:29.667Z,5.10
2019-05-17T23:11:32.026Z,3.93
2019-05-17T23:14:34.401Z,5.13
2019-05-17T23:17:36.751Z,4.70
2019-05-17T23:20:39.055Z,5.53
2019-05-17T23:23:41.421Z,5.43
2019-05-17T23:26:43.685Z,5.70
2019-05-17T23:29:46.045Z,6.07
2019-05-17T23:32:48.352Z,4.40
2019-05-17T23:35:50.584Z,5.80
2019-05-17T23:38:52.912Z,5.43
2019-05-17T23:41:55.261Z,5.37
2019-05-17T23:44:57.542Z,5.40
2019-05-17T23:47:59.802Z,4.57
2019-05-17T23:51:02.129Z,5.43
2019-05-17T23:54:04.484Z,6.43
2019-05-17T23:57:06.791Z,6.63
